createdAt,value
2023-02-12T00:01:04.615Z,22.80
2023-02-12T00:06:04.570Z,24.10
2023-02-12T00:11:04.443Z,25.30
2023-02-12T00:16:04.432Z,24.70
2023-02-12T00:21:04.319Z,25.20
2023-02-12T00:26:04.509Z,24.70
2023-02-12T00:31:04.337Z,26.60
2023-02-12T00:36:04.106Z,24.90
2023-02-12T00:41:04.089Z,25.30
2023-02-12T00:46:04.026Z,26.00
2023-02-12T00:51:03.930Z,25.80
2023-02-12T00:56:03.858Z,26.30
2023-02-12T01:01:03.928Z,26.30
2023-02-12T01:06:03.773Z,25.60
2023-02-12T01:11:03.698Z,26.20
2023-02-12T01:16:03.682Z,25.90
2023-02-12T01:21:03.582Z,26.00
2023-02-12T01:26:03.516Z,25.30
2023-02-12T01:31:03.855Z,26.00
2023-02-12T01:36:03.331Z,26.70
2023-02-12T01:41:03.326Z,25.00
2023-02-12T01:46:03.227Z,24.80
2023-02-12T01:51:03.158Z,24.10
2023-02-12T01:56:03.091Z,24.60
2023-02-12T02:01:03.006Z,25.10
2023-02-12T02:06:02.925Z,25.00
2023-02-12T02:11:02.907Z,25.00
2023-02-12T02:16:02.810Z,25.70
2023-02-12T02:21:02.799Z,25.30
2023-02-12T02:26:02.661Z,26.00
2023-02-12T02:31:02.777Z,25.10
2023-02-12T02:36:02.527Z,26.00
2023-02-12T02:41:02.484Z,25.90
2023-02-12T02:46:02.415Z,26.70
2023-02-12T02:51:02.353Z,27.00
2023-02-12T02:56:02.273Z,26.40
2023-02-12T03:01:02.389Z,28.30
2023-02-12T03:06:02.127Z,27.60
2023-02-12T03:11:02.069Z,26.40
2023-02-12T03:16:02.087Z,26.20
2023-02-12T03:21:01.955Z,26.80
2023-02-12T03:26:01.875Z,27.20
2023-02-12T03:31:01.949Z,25.90
2023-02-12T03:36:01.755Z,26.10
2023-02-12T03:41:01.700Z,26.60
2023-02-12T03:46:01.703Z,25.50
2023-02-12T03:51:01.555Z,26.80
2023-02-12T03:56:01.490Z,26.20
2023-02-12T04:01:01.459Z,26.70
2023-02-12T04:06:01.347Z,25.90
2023-02-12T04:11:01.263Z,28.20
2023-02-12T04:16:01.216Z,27.30
2023-02-12T04:21:01.128Z,27.90
2023-02-12T04:26:01.075Z,29.10
2023-02-12T04:31:01.214Z,30.50
2023-02-12T04:36:00.907Z,29.40
2023-02-12T04:41:00.929Z,29.80
2023-02-12T04:46:00.829Z,29.80
2023-02-12T04:51:00.726Z,30.10
2023-02-12T04:56:00.668Z,30.70
2023-02-12T05:01:00.614Z,30.80
2023-02-12T05:06:00.791Z,28.80
2023-02-12T05:11:00.467Z,29.80
2023-02-12T05:16:00.456Z,29.40
2023-02-12T05:21:00.376Z,28.70
2023-02-12T05:26:00.255Z,29.20
2023-02-12T05:31:00.285Z,28.70
2023-02-12T05:36:00.402Z,28.00
2023-02-12T05:41:00.098Z,28.60
2023-02-12T05:46:00.029Z,28.00
2023-02-12T05:50:59.963Z,29.20
2023-02-12T05:55:59.936Z,28.60
2023-02-12T06:00:59.820Z,27.20
2023-02-12T06:05:59.789Z,28.10
2023-02-12T06:10:59.687Z,28.60
2023-02-12T06:15:59.900Z,27.00
2023-02-12T06:20:59.530Z,26.00
2023-02-12T06:25:59.454Z,27.00
2023-02-12T06:30:59.583Z,26.80
2023-02-12T06:35:59.444Z,25.80
2023-02-12T06:40:59.305Z,26.70
2023-02-12T06:45:59.250Z,25.60
2023-02-12T06:50:59.157Z,26.20
2023-02-12T06:55:59.091Z,26.50
2023-02-12T07:00:59.062Z,25.00
2023-02-12T07:05:58.970Z,23.50
2023-02-12T07:10:58.863Z,23.40
2023-02-12T07:15:59.153Z,22.40
2023-02-12T07:20:58.829Z,22.10
2023-02-12T07:25:58.738Z,22.10
2023-02-12T07:30:58.606Z,20.30
2023-02-12T07:35:58.564Z,19.80
2023-02-12T07:40:58.501Z,20.10
2023-02-12T07:45:58.802Z,19.00
2023-02-12T07:50:58.323Z,20.10
2023-02-12T07:55:58.445Z,19.80
2023-02-12T08:00:58.210Z,19.80
2023-02-12T08:05:58.323Z,20.50
2023-02-12T08:10:58.090Z,19.60
2023-02-12T08:15:58.369Z,19.90
2023-02-12T08:20:58.039Z,21.00
2023-02-12T08:25:58.046Z,22.10
2023-02-12T08:30:57.869Z,21.30
2023-02-12T08:35:59.857Z,22.00
2023-02-12T08:40:57.733Z,24.30
2023-02-12T08:45:58.023Z,22.90
2023-02-12T08:50:57.564Z,23.10
2023-02-12T08:55:57.824Z,21.70
2023-02-12T09:00:57.464Z,22.70
2023-02-12T09:05:57.603Z,23.10
2023-02-12T09:10:57.344Z,22.00
2023-02-12T09:15:57.802Z,22.30
2023-02-12T09:20:57.184Z,22.70
2023-02-12T09:25:57.407Z,21.60
2023-02-12T09:30:57.176Z,21.70
2023-02-12T09:35:57.206Z,21.50
2023-02-12T09:40:57.025Z,19.00
2023-02-12T09:45:57.222Z,18.30
2023-02-12T09:50:56.743Z,17.20
2023-02-12T09:55:56.981Z,16.70
2023-02-12T10:00:56.908Z,15.40
2023-02-12T10:05:56.933Z,14.20
2023-02-12T10:10:56.780Z,14.60
2023-02-12T10:15:56.662Z,13.30
2023-02-12T10:20:56.618Z,13.50
2023-02-12T10:25:56.843Z,11.80
2023-02-12T10:30:56.421Z,11.80
2023-02-12T10:35:56.420Z,11.60
2023-02-12T10:40:56.070Z,10.90
2023-02-12T10:45:56.414Z,10.80
2023-02-12T10:50:55.921Z,9.10
2023-02-12T10:55:56.185Z,8.60
2023-02-12T11:00:55.837Z,8.60
2023-02-12T11:05:56.039Z,8.40
2023-02-12T11:10:55.661Z,7.90
2023-02-12T11:15:55.629Z,8.00
2023-02-12T11:20:55.543Z,7.50
2023-02-12T11:25:55.739Z,7.40
2023-02-12T11:30:55.550Z,7.20
2023-02-12T11:35:55.322Z,7.60
2023-02-12T11:40:55.820Z,7.20
2023-02-12T11:45:55.655Z,6.70
2023-02-12T11:50:55.203Z,5.80
2023-02-12T11:55:55.076Z,5.80
2023-02-12T12:00:55.131Z,5.50
2023-02-12T12:05:55.234Z,6.30
2023-02-12T12:10:54.874Z,5.40
2023-02-12T12:15:55.113Z,5.80
2023-02-12T12:20:54.809Z,5.70
2023-02-12T12:25:55.093Z,6.50
2023-02-12T12:30:54.724Z,5.90
2023-02-12T12:35:55.038Z,5.50
2023-02-12T12:40:54.555Z,4.80
2023-02-12T12:45:54.741Z,5.00
2023-02-12T12:50:54.379Z,5.40
2023-02-12T12:55:54.748Z,5.30
2023-02-12T13:00:54.424Z,5.10
2023-02-12T13:05:54.685Z,5.40
2023-02-12T13:10:54.066Z,5.30
2023-02-12T13:15:54.436Z,6.50
2023-02-12T13:20:53.935Z,6.10
2023-02-12T13:25:54.126Z,6.50
2023-02-12T13:30:54.024Z,6.40
2023-02-12T13:35:54.030Z,6.40
2023-02-12T13:40:53.787Z,6.10
2023-02-12T13:45:54.923Z,6.60
2023-02-12T13:50:58.966Z,6.00
2023-02-12T13:55:54.906Z,5.80
2023-02-12T14:00:53.403Z,6.00
2023-02-12T14:05:53.323Z,6.20
2023-02-12T14:10:53.329Z,5.80
2023-02-12T14:15:53.345Z,5.80
2023-02-12T14:20:53.208Z,4.50
2023-02-12T14:25:53.129Z,3.90
2023-02-12T14:30:53.554Z,5.30
2023-02-12T14:35:53.420Z,4.90
2023-02-12T14:40:52.847Z,4.70
2023-02-12T14:45:52.849Z,4.60
2023-02-12T14:50:52.740Z,5.40
2023-02-12T14:55:53.067Z,6.00
2023-02-12T15:00:54.593Z,5.80
2023-02-12T15:05:52.572Z,6.00
2023-02-12T15:10:52.461Z,6.00
2023-02-12T15:15:52.492Z,6.10
2023-02-12T15:20:52.299Z,6.60
2023-02-12T15:25:53.590Z,6.20
2023-02-12T15:30:52.794Z,7.40
2023-02-12T15:35:52.657Z,7.80
2023-02-12T15:40:52.055Z,7.80
2023-02-12T15:45:52.173Z,7.90
2023-02-12T15:50:51.946Z,7.80
2023-02-12T15:55:52.141Z,7.40
2023-02-12T16:00:51.798Z,8.30
2023-02-12T16:05:51.862Z,8.80
2023-02-12T16:10:52.133Z,8.60
2023-02-12T16:15:52.848Z,8.10
2023-02-12T16:20:51.647Z,8.40
2023-02-12T16:25:51.561Z,9.20
2023-02-12T16:30:52.542Z,8.80
2023-02-12T16:35:51.652Z,8.80
2023-02-12T16:40:51.424Z,9.40
2023-02-12T16:45:51.400Z,9.90
2023-02-12T16:50:51.308Z,9.00
2023-02-12T16:55:51.527Z,9.30
2023-02-12T17:00:51.060Z,8.90
2023-02-12T17:05:51.009Z,10.00
2023-02-12T17:10:50.960Z,9.60
2023-02-12T17:15:50.819Z,9.60
2023-02-12T17:20:50.825Z,10.00
2023-02-12T17:25:50.935Z,9.90
2023-02-12T17:30:50.694Z,11.70
2023-02-12T17:35:51.597Z,11.40
2023-02-12T17:40:50.642Z,13.80
2023-02-12T17:45:50.503Z,14.10
2023-02-12T17:50:50.640Z,11.80
2023-02-12T17:55:50.270Z,13.30
2023-02-12T18:00:50.220Z,12.70
2023-02-12T18:05:50.185Z,15.20
2023-02-12T18:10:50.096Z,15.00
2023-02-12T18:15:50.099Z,15.40
2023-02-12T18:20:49.983Z,15.70
2023-02-12T18:25:50.038Z,13.90
2023-02-12T18:30:49.857Z,15.60
2023-02-12T18:35:49.870Z,14.40
2023-02-12T18:40:49.733Z,16.00
2023-02-12T18:45:49.779Z,15.50
2023-02-12T18:50:49.628Z,16.70
2023-02-12T18:56:21.913Z,16.60
2023-02-12T19:01:21.818Z,17.00
2023-02-12T19:06:22.741Z,16.50
2023-02-12T19:11:21.644Z,15.90
2023-02-12T19:16:21.575Z,15.70
2023-02-12T19:21:21.744Z,15.40
2023-02-12T19:26:21.522Z,16.10
2023-02-12T19:31:21.532Z,14.90
2023-02-12T19:36:21.310Z,15.20
2023-02-12T19:41:21.388Z,15.60
2023-02-12T19:46:21.199Z,14.60
2023-02-12T19:51:21.160Z,15.30
2023-02-12T19:56:21.083Z,15.40
2023-02-12T20:01:21.395Z,16.20
2023-02-12T20:06:20.910Z,16.70
2023-02-12T20:11:20.881Z,16.40
2023-02-12T20:16:20.790Z,15.50
2023-02-12T20:21:20.789Z,15.50
2023-02-12T20:26:20.789Z,16.10
2023-02-12T20:31:20.725Z,15.20
2023-02-12T20:36:21.774Z,15.30
2023-02-12T20:41:20.448Z,17.10
2023-02-12T20:46:20.381Z,16.30
2023-02-12T20:51:20.313Z,14.80
2023-02-12T20:56:20.253Z,15.60
2023-02-12T21:01:20.247Z,15.00
2023-02-12T21:06:20.180Z,17.40
2023-02-12T21:11:20.086Z,15.50
2023-02-12T21:16:20.180Z,13.80
2023-02-12T21:21:19.948Z,14.90
2023-02-12T21:26:19.894Z,16.00
2023-02-12T21:31:19.927Z,17.60
2023-02-12T21:36:19.714Z,18.00
2023-02-12T21:41:19.668Z,17.70
2023-02-12T21:46:20.042Z,18.80
2023-02-12T21:51:19.568Z,18.30
2023-02-12T21:56:19.491Z,19.10
2023-02-12T22:01:19.541Z,17.40
2023-02-12T22:06:19.366Z,18.90
2023-02-12T22:11:19.277Z,18.80
2023-02-12T22:16:19.236Z,15.90
2023-02-12T22:21:19.114Z,14.80
2023-02-12T22:26:19.075Z,17.40
2023-02-12T22:31:19.033Z,17.50
2023-02-12T22:36:19.040Z,17.60
2023-02-12T22:41:18.920Z,13.60
2023-02-12T22:46:18.869Z,14.00
2023-02-12T22:51:18.732Z,14.70
2023-02-12T22:56:18.722Z,15.40
2023-02-12T23:01:18.631Z,12.20
2023-02-12T23:06:18.555Z,12.80
2023-02-12T23:11:18.459Z,15.70
2023-02-12T23:16:18.456Z,14.10
2023-02-12T23:21:18.378Z,15.70
2023-02-12T23:26:18.363Z,16.90
2023-02-12T23:31:18.429Z,16.90
2023-02-12T23:36:18.170Z,15.80
2023-02-12T23:41:18.089Z,16.80
2023-02-12T23:46:18.111Z,17.70
2023-02-12T23:51:17.995Z,18.00
2023-02-12T23:56:17.920Z,18.50
